sensor_id;sensor_type;location;lat;lon;timestamp;P1;durP1;ratioP1;P2;durP2;ratioP2
74347;SDS011;62778;50.406;10.008;2023-01-20T00:00:09;13.70;;;8.45;;
74347;SDS011;62778;50.406;10.008;2023-01-20T00:01:05;13.70;;;8.52;;
74347;SDS011;62778;50.406;10.008;2023-01-20T00:02:00;13.50;;;8.37;;
74347;SDS011;62778;50.406;10.008;2023-01-20T00:02:56;15.88;;;9.07;;
74347;SDS011;62778;50.406;10.008;2023-01-20T00:03:53;14.67;;;9.10;;
74347;SDS011;62778;50.406;10.008;2023-01-20T00:04:49;14.60;;;8.00;;
74347;SDS011;62778;50.406;10.008;2023-01-20T00:05:50;15.13;;;8.20;;
74347;SDS011;62778;50.406;10.008;2023-01-20T00:06:46;14.93;;;8.48;;
74347;SDS011;62778;50.406;10.008;2023-01-20T00:07:42;14.38;;;8.45;;
74347;SDS011;62778;50.406;10.008;2023-01-20T00:08:37;14.33;;;7.30;;
74347;SDS011;62778;50.406;10.008;2023-01-20T00:09:33;13.03;;;7.93;;
74347;SDS011;62778;50.406;10.008;2023-01-20T00:10:28;12.18;;;7.43;;
74347;SDS011;62778;50.406;10.008;2023-01-20T00:11:23;13.40;;;7.57;;
74347;SDS011;62778;50.406;10.008;2023-01-20T00:12:19;13.23;;;7.77;;
74347;SDS011;62778;50.406;10.008;2023-01-20T00:13:14;12.30;;;6.88;;
74347;SDS011;62778;50.406;10.008;2023-01-20T00:14:10;13.83;;;7.83;;
74347;SDS011;62778;50.406;10.008;2023-01-20T00:15:05;14.00;;;7.80;;
74347;SDS011;62778;50.406;10.008;2023-01-20T00:16:02;15.63;;;7.65;;
74347;SDS011;62778;50.406;10.008;2023-01-20T00:16:58;14.18;;;7.38;;
74347;SDS011;62778;50.406;10.008;2023-01-20T00:17:54;13.20;;;7.57;;
74347;SDS011;62778;50.406;10.008;2023-01-20T00:18:49;13.10;;;8.10;;
74347;SDS011;62778;50.406;10.008;2023-01-20T00:19:45;12.48;;;6.70;;
74347;SDS011;62778;50.406;10.008;2023-01-20T00:20:40;13.50;;;7.33;;
74347;SDS011;62778;50.406;10.008;2023-01-20T00:21:35;14.53;;;7.83;;
74347;SDS011;62778;50.406;10.008;2023-01-20T00:22:31;13.27;;;7.37;;
74347;SDS011;62778;50.406;10.008;2023-01-20T00:23:26;12.00;;;6.68;;
74347;SDS011;62778;50.406;10.008;2023-01-20T00:24:21;13.77;;;7.93;;
74347;SDS011;62778;50.406;10.008;2023-01-20T00:25:17;12.37;;;7.00;;
74347;SDS011;62778;50.406;10.008;2023-01-20T00:26:19;14.20;;;7.55;;
74347;SDS011;62778;50.406;10.008;2023-01-20T00:27:16;15.23;;;7.80;;
74347;SDS011;62778;50.406;10.008;2023-01-20T00:28:11;13.73;;;7.13;;
74347;SDS011;62778;50.406;10.008;2023-01-20T00:29:06;13.27;;;7.03;;
74347;SDS011;62778;50.406;10.008;2023-01-20T00:30:02;14.90;;;8.45;;
74347;SDS011;62778;50.406;10.008;2023-01-20T00:31:08;14.68;;;7.82;;
74347;SDS011;62778;50.406;10.008;2023-01-20T00:32:23;21.35;;;8.15;;
74347;SDS011;62778;50.406;10.008;2023-01-20T00:33:19;30.37;;;9.53;;
74347;SDS011;62778;50.406;10.008;2023-01-20T00:34:14;21.90;;;8.53;;
74347;SDS011;62778;50.406;10.008;2023-01-20T00:35:10;26.00;;;8.63;;
74347;SDS011;62778;50.406;10.008;2023-01-20T00:36:06;19.67;;;7.90;;
74347;SDS011;62778;50.406;10.008;2023-01-20T00:37:02;16.17;;;7.03;;
74347;SDS011;62778;50.406;10.008;2023-01-20T00:37:57;35.70;;;8.47;;
74347;SDS011;62778;50.406;10.008;2023-01-20T00:38:52;38.23;;;10.33;;
74347;SDS011;62778;50.406;10.008;2023-01-20T00:39:48;25.83;;;8.93;;
74347;SDS011;62778;50.406;10.008;2023-01-20T00:40:43;24.40;;;8.37;;
74347;SDS011;62778;50.406;10.008;2023-01-20T00:41:38;26.03;;;7.40;;
74347;SDS011;62778;50.406;10.008;2023-01-20T00:42:33;28.80;;;8.70;;
74347;SDS011;62778;50.406;10.008;2023-01-20T00:43:29;34.90;;;9.63;;
74347;SDS011;62778;50.406;10.008;2023-01-20T00:44:24;23.40;;;9.27;;
74347;SDS011;62778;50.406;10.008;2023-01-20T00:45:19;20.27;;;7.83;;
74347;SDS011;62778;50.406;10.008;2023-01-20T00:46:15;25.47;;;7.90;;
74347;SDS011;62778;50.406;10.008;2023-01-20T00:47:10;19.97;;;8.70;;
74347;SDS011;62778;50.406;10.008;2023-01-20T00:48:06;25.52;;;8.45;;
74347;SDS011;62778;50.406;10.008;2023-01-20T00:49:01;16.13;;;7.70;;
74347;SDS011;62778;50.406;10.008;2023-01-20T00:49:56;15.30;;;6.97;;
74347;SDS011;62778;50.406;10.008;2023-01-20T00:50:52;17.63;;;7.90;;
74347;SDS011;62778;50.406;10.008;2023-01-20T00:51:47;17.88;;;7.68;;
74347;SDS011;62778;50.406;10.008;2023-01-20T00:52:42;19.70;;;8.87;;
74347;SDS011;62778;50.406;10.008;2023-01-20T00:53:38;20.87;;;8.80;;
74347;SDS011;62778;50.406;10.008;2023-01-20T00:54:33;34.27;;;8.70;;
74347;SDS011;62778;50.406;10.008;2023-01-20T00:55:28;22.77;;;8.52;;
74347;SDS011;62778;50.406;10.008;2023-01-20T00:56:23;19.47;;;7.67;;
74347;SDS011;62778;50.406;10.008;2023-01-20T00:57:19;16.43;;;7.47;;
74347;SDS011;62778;50.406;10.008;2023-01-20T00:58:14;16.03;;;7.30;;
74347;SDS011;62778;50.406;10.008;2023-01-20T00:59:10;15.20;;;7.18;;
74347;SDS011;62778;50.406;10.008;2023-01-20T01:00:05;21.27;;;8.17;;
74347;SDS011;62778;50.406;10.008;2023-01-20T01:01:01;25.73;;;9.50;;
74347;SDS011;62778;50.406;10.008;2023-01-20T01:01:57;23.80;;;7.87;;
74347;SDS011;62778;50.406;10.008;2023-01-20T01:02:52;22.58;;;8.32;;
74347;SDS011;62778;50.406;10.008;2023-01-20T01:03:47;21.27;;;8.40;;
74347;SDS011;62778;50.406;10.008;2023-01-20T01:04:43;29.60;;;9.13;;
74347;SDS011;62778;50.406;10.008;2023-01-20T01:05:38;35.33;;;8.90;;
74347;SDS011;62778;50.406;10.008;2023-01-20T01:06:33;38.25;;;9.07;;
74347;SDS011;62778;50.406;10.008;2023-01-20T01:07:29;17.17;;;8.23;;
74347;SDS011;62778;50.406;10.008;2023-01-20T01:08:24;21.43;;;9.13;;
74347;SDS011;62778;50.406;10.008;2023-01-20T01:09:19;21.20;;;9.13;;
74347;SDS011;62778;50.406;10.008;2023-01-20T01:10:15;16.88;;;7.95;;
74347;SDS011;62778;50.406;10.008;2023-01-20T01:11:11;17.37;;;7.73;;
74347;SDS011;62778;50.406;10.008;2023-01-20T01:12:07;15.77;;;7.75;;
74347;SDS011;62778;50.406;10.008;2023-01-20T01:13:02;18.10;;;8.77;;
74347;SDS011;62778;50.406;10.008;2023-01-20T01:13:58;21.58;;;8.93;;
74347;SDS011;62778;50.406;10.008;2023-01-20T01:14:54;23.50;;;9.30;;
74347;SDS011;62778;50.406;10.008;2023-01-20T01:15:49;17.30;;;8.60;;
74347;SDS011;62778;50.406;10.008;2023-01-20T01:16:44;17.63;;;7.80;;
74347;SDS011;62778;50.406;10.008;2023-01-20T01:17:41;20.43;;;8.57;;
74347;SDS011;62778;50.406;10.008;2023-01-20T01:18:38;19.90;;;9.02;;
74347;SDS011;62778;50.406;10.008;2023-01-20T01:19:33;20.33;;;9.05;;
74347;SDS011;62778;50.406;10.008;2023-01-20T01:20:29;19.20;;;8.40;;
74347;SDS011;62778;50.406;10.008;2023-01-20T01:21:24;15.80;;;7.77;;
74347;SDS011;62778;50.406;10.008;2023-01-20T01:22:20;16.83;;;7.88;;
74347;SDS011;62778;50.406;10.008;2023-01-20T01:23:15;19.40;;;9.10;;
74347;SDS011;62778;50.406;10.008;2023-01-20T01:24:11;20.77;;;8.53;;
74347;SDS011;62778;50.406;10.008;2023-01-20T01:25:06;17.33;;;7.97;;
74347;SDS011;62778;50.406;10.008;2023-01-20T01:26:01;13.45;;;7.20;;
74347;SDS011;62778;50.406;10.008;2023-01-20T01:26:57;16.57;;;7.87;;
74347;SDS011;62778;50.406;10.008;2023-01-20T01:27:52;16.75;;;8.35;;
74347;SDS011;62778;50.406;10.008;2023-01-20T01:28:48;16.45;;;8.30;;
74347;SDS011;62778;50.406;10.008;2023-01-20T01:29:44;16.52;;;8.00;;
74347;SDS011;62778;50.406;10.008;2023-01-20T01:30:39;16.17;;;8.37;;
74347;SDS011;62778;50.406;10.008;2023-01-20T01:31:34;15.57;;;7.87;;
74347;SDS011;62778;50.406;10.008;2023-01-20T01:32:30;15.53;;;7.77;;
74347;SDS011;62778;50.406;10.008;2023-01-20T01:33:25;16.45;;;7.68;;
74347;SDS011;62778;50.406;10.008;2023-01-20T01:34:21;16.80;;;8.40;;
74347;SDS011;62778;50.406;10.008;2023-01-20T01:35:16;18.47;;;9.30;;
74347;SDS011;62778;50.406;10.008;2023-01-20T01:36:12;18.70;;;9.13;;
74347;SDS011;62778;50.406;10.008;2023-01-20T01:37:08;18.17;;;9.00;;
74347;SDS011;62778;50.406;10.008;2023-01-20T01:38:03;16.60;;;8.00;;
74347;SDS011;62778;50.406;10.008;2023-01-20T01:38:59;16.88;;;8.27;;
74347;SDS011;62778;50.406;10.008;2023-01-20T01:39:54;16.20;;;7.87;;
74347;SDS011;62778;50.406;10.008;2023-01-20T01:40:50;17.60;;;8.60;;
74347;SDS011;62778;50.406;10.008;2023-01-20T01:41:46;16.50;;;7.90;;
74347;SDS011;62778;50.406;10.008;2023-01-20T01:42:42;17.70;;;8.70;;
74347;SDS011;62778;50.406;10.008;2023-01-20T01:43:37;17.93;;;8.87;;
74347;SDS011;62778;50.406;10.008;2023-01-20T01:44:33;17.77;;;8.88;;
74347;SDS011;62778;50.406;10.008;2023-01-20T01:45:31;15.90;;;8.38;;
74347;SDS011;62778;50.406;10.008;2023-01-20T01:46:27;16.27;;;7.90;;
74347;SDS011;62778;50.406;10.008;2023-01-20T01:47:22;17.65;;;8.45;;
74347;SDS011;62778;50.406;10.008;2023-01-20T01:48:19;14.93;;;7.80;;
74347;SDS011;62778;50.406;10.008;2023-01-20T01:49:17;18.48;;;8.60;;
74347;SDS011;62778;50.406;10.008;2023-01-20T01:50:19;18.42;;;9.50;;
74347;SDS011;62778;50.406;10.008;2023-01-20T01:51:20;18.23;;;8.90;;
74347;SDS011;62778;50.406;10.008;2023-01-20T01:52:17;17.83;;;8.67;;
74347;SDS011;62778;50.406;10.008;2023-01-20T01:53:14;20.13;;;9.67;;
74347;SDS011;62778;50.406;10.008;2023-01-20T01:54:11;18.77;;;9.18;;
74347;SDS011;62778;50.406;10.008;2023-01-20T01:55:08;18.92;;;8.90;;
74347;SDS011;62778;50.406;10.008;2023-01-20T01:56:04;17.13;;;8.60;;
74347;SDS011;62778;50.406;10.008;2023-01-20T01:56:59;18.70;;;8.48;;
74347;SDS011;62778;50.406;10.008;2023-01-20T01:57:55;17.83;;;8.23;;
74347;SDS011;62778;50.406;10.008;2023-01-20T01:58:51;18.98;;;9.25;;
74347;SDS011;62778;50.406;10.008;2023-01-20T01:59:47;18.60;;;9.38;;
74347;SDS011;62778;50.406;10.008;2023-01-20T02:00:43;18.37;;;9.20;;
74347;SDS011;62778;50.406;10.008;2023-01-20T02:01:39;18.52;;;9.40;;
74347;SDS011;62778;50.406;10.008;2023-01-20T02:02:37;17.42;;;8.75;;
74347;SDS011;62778;50.406;10.008;2023-01-20T02:03:53;16.25;;;7.72;;
74347;SDS011;62778;50.406;10.008;2023-01-20T02:04:52;15.23;;;7.70;;
74347;SDS011;62778;50.406;10.008;2023-01-20T02:05:48;14.57;;;7.70;;
74347;SDS011;62778;50.406;10.008;2023-01-20T02:06:45;14.25;;;7.00;;
74347;SDS011;62778;50.406;10.008;2023-01-20T02:07:43;13.40;;;6.80;;
74347;SDS011;62778;50.406;10.008;2023-01-20T02:08:39;12.73;;;6.07;;
74347;SDS011;62778;50.406;10.008;2023-01-20T02:09:35;11.90;;;6.60;;
74347;SDS011;62778;50.406;10.008;2023-01-20T02:10:30;12.60;;;6.28;;
74347;SDS011;62778;50.406;10.008;2023-01-20T02:11:27;15.67;;;7.33;;
74347;SDS011;62778;50.406;10.008;2023-01-20T02:12:23;15.48;;;7.45;;
74347;SDS011;62778;50.406;10.008;2023-01-20T02:13:18;14.20;;;6.77;;
74347;SDS011;62778;50.406;10.008;2023-01-20T02:14:15;13.45;;;6.90;;
74347;SDS011;62778;50.406;10.008;2023-01-20T02:15:16;11.82;;;5.70;;
74347;SDS011;62778;50.406;10.008;2023-01-20T02:16:13;12.50;;;6.28;;
74347;SDS011;62778;50.406;10.008;2023-01-20T02:17:20;10.38;;;5.60;;
74347;SDS011;62778;50.406;10.008;2023-01-20T02:18:24;12.93;;;6.40;;
74347;SDS011;62778;50.406;10.008;2023-01-20T02:20:56;12.23;;;6.15;;
74347;SDS011;62778;50.406;10.008;2023-01-20T02:25:52;12.37;;;6.43;;
74347;SDS011;62778;50.406;10.008;2023-01-20T02:28:56;14.75;;;6.22;;
74347;SDS011;62778;50.406;10.008;2023-01-20T02:30:06;12.43;;;6.10;;
74347;SDS011;62778;50.406;10.008;2023-01-20T02:31:10;13.93;;;7.47;;
74347;SDS011;62778;50.406;10.008;2023-01-20T02:36:24;14.52;;;7.30;;
74347;SDS011;62778;50.406;10.008;2023-01-20T02:37:28;17.55;;;8.43;;
74347;SDS011;62778;50.406;10.008;2023-01-20T02:38:46;14.43;;;7.93;;
74347;SDS011;62778;50.406;10.008;2023-01-20T02:39:59;14.82;;;7.40;;
74347;SDS011;62778;50.406;10.008;2023-01-20T02:42:09;17.35;;;9.35;;
74347;SDS011;62778;50.406;10.008;2023-01-20T02:44:28;14.98;;;6.80;;
74347;SDS011;62778;50.406;10.008;2023-01-20T02:45:46;13.43;;;6.55;;
74347;SDS011;62778;50.406;10.008;2023-01-20T02:46:51;11.75;;;5.63;;
74347;SDS011;62778;50.406;10.008;2023-01-20T02:47:57;13.85;;;6.28;;
74347;SDS011;62778;50.406;10.008;2023-01-20T02:49:04;13.90;;;6.20;;
74347;SDS011;62778;50.406;10.008;2023-01-20T02:50:06;16.57;;;7.67;;
74347;SDS011;62778;50.406;10.008;2023-01-20T02:51:12;15.63;;;7.70;;
74347;SDS011;62778;50.406;10.008;2023-01-20T02:52:14;15.45;;;7.10;;
74347;SDS011;62778;50.406;10.008;2023-01-20T02:53:11;12.07;;;6.63;;
74347;SDS011;62778;50.406;10.008;2023-01-20T02:54:09;13.90;;;6.40;;
74347;SDS011;62778;50.406;10.008;2023-01-20T02:55:07;12.85;;;6.03;;
74347;SDS011;62778;50.406;10.008;2023-01-20T02:56:04;13.95;;;7.30;;
74347;SDS011;62778;50.406;10.008;2023-01-20T02:57:01;14.15;;;7.68;;
74347;SDS011;62778;50.406;10.008;2023-01-20T02:58:02;16.38;;;7.55;;
74347;SDS011;62778;50.406;10.008;2023-01-20T02:59:19;14.73;;;7.40;;
74347;SDS011;62778;50.406;10.008;2023-01-20T03:00:18;14.93;;;7.70;;
74347;SDS011;62778;50.406;10.008;2023-01-20T03:01:19;14.68;;;6.85;;
74347;SDS011;62778;50.406;10.008;2023-01-20T03:02:41;14.50;;;7.32;;
74347;SDS011;62778;50.406;10.008;2023-01-20T03:03:37;12.52;;;6.65;;
74347;SDS011;62778;50.406;10.008;2023-01-20T03:04:35;14.05;;;6.95;;
74347;SDS011;62778;50.406;10.008;2023-01-20T03:05:34;13.70;;;7.13;;
74347;SDS011;62778;50.406;10.008;2023-01-20T03:06:33;13.15;;;6.82;;
74347;SDS011;62778;50.406;10.008;2023-01-20T03:07:31;14.15;;;7.18;;
74347;SDS011;62778;50.406;10.008;2023-01-20T03:08:30;14.83;;;8.03;;
74347;SDS011;62778;50.406;10.008;2023-01-20T03:09:29;17.50;;;8.43;;
74347;SDS011;62778;50.406;10.008;2023-01-20T03:10:32;15.23;;;7.90;;
74347;SDS011;62778;50.406;10.008;2023-01-20T03:11:29;13.15;;;6.50;;
74347;SDS011;62778;50.406;10.008;2023-01-20T03:12:28;12.68;;;6.70;;
74347;SDS011;62778;50.406;10.008;2023-01-20T03:14:30;12.25;;;6.47;;
74347;SDS011;62778;50.406;10.008;2023-01-20T03:15:34;12.63;;;6.77;;
74347;SDS011;62778;50.406;10.008;2023-01-20T03:16:33;13.27;;;6.57;;
74347;SDS011;62778;50.406;10.008;2023-01-20T03:17:29;12.53;;;7.00;;
74347;SDS011;62778;50.406;10.008;2023-01-20T03:18:24;12.23;;;6.57;;
74347;SDS011;62778;50.406;10.008;2023-01-20T03:19:22;12.80;;;7.15;;
74347;SDS011;62778;50.406;10.008;2023-01-20T03:20:17;14.53;;;7.27;;
74347;SDS011;62778;50.406;10.008;2023-01-20T03:21:13;15.00;;;7.37;;
74347;SDS011;62778;50.406;10.008;2023-01-20T03:22:08;11.98;;;6.68;;
74347;SDS011;62778;50.406;10.008;2023-01-20T03:23:04;12.53;;;6.53;;
74347;SDS011;62778;50.406;10.008;2023-01-20T03:24:00;11.23;;;6.13;;
74347;SDS011;62778;50.406;10.008;2023-01-20T03:24:56;11.77;;;6.10;;
74347;SDS011;62778;50.406;10.008;2023-01-20T03:25:53;11.85;;;6.50;;
74347;SDS011;62778;50.406;10.008;2023-01-20T03:26:49;12.63;;;7.00;;
74347;SDS011;62778;50.406;10.008;2023-01-20T03:27:44;12.20;;;6.70;;
74347;SDS011;62778;50.406;10.008;2023-01-20T03:28:40;13.40;;;7.10;;
74347;SDS011;62778;50.406;10.008;2023-01-20T03:29:36;13.70;;;6.93;;
74347;SDS011;62778;50.406;10.008;2023-01-20T03:30:31;14.48;;;7.75;;
74347;SDS011;62778;50.406;10.008;2023-01-20T03:32:22;16.07;;;8.13;;
74347;SDS011;62778;50.406;10.008;2023-01-20T03:33:20;15.52;;;8.05;;
74347;SDS011;62778;50.406;10.008;2023-01-20T03:34:17;13.30;;;6.87;;
74347;SDS011;62778;50.406;10.008;2023-01-20T03:35:14;14.20;;;6.57;;
74347;SDS011;62778;50.406;10.008;2023-01-20T03:36:10;13.50;;;7.07;;
74347;SDS011;62778;50.406;10.008;2023-01-20T03:37:06;14.90;;;7.28;;
74347;SDS011;62778;50.406;10.008;2023-01-20T03:38:02;16.00;;;8.23;;
74347;SDS011;62778;50.406;10.008;2023-01-20T03:38:57;15.77;;;9.03;;
74347;SDS011;62778;50.406;10.008;2023-01-20T03:39:53;15.98;;;8.50;;
74347;SDS011;62778;50.406;10.008;2023-01-20T03:40:59;13.40;;;7.13;;
74347;SDS011;62778;50.406;10.008;2023-01-20T03:43:03;13.38;;;7.10;;
74347;SDS011;62778;50.406;10.008;2023-01-20T03:44:11;13.55;;;7.22;;
74347;SDS011;62778;50.406;10.008;2023-01-20T03:45:30;16.17;;;7.67;;
74347;SDS011;62778;50.406;10.008;2023-01-20T03:47:09;13.73;;;7.30;;
74347;SDS011;62778;50.406;10.008;2023-01-20T03:48:36;14.75;;;7.78;;
74347;SDS011;62778;50.406;10.008;2023-01-20T03:50:59;14.45;;;7.82;;
74347;SDS011;62778;50.406;10.008;2023-01-20T03:52:32;16.38;;;8.18;;
74347;SDS011;62778;50.406;10.008;2023-01-20T03:53:32;14.73;;;7.22;;
74347;SDS011;62778;50.406;10.008;2023-01-20T03:54:41;14.48;;;6.97;;
74347;SDS011;62778;50.406;10.008;2023-01-20T03:55:52;12.50;;;5.93;;
74347;SDS011;62778;50.406;10.008;2023-01-20T03:56:54;15.40;;;7.13;;
74347;SDS011;62778;50.406;10.008;2023-01-20T03:58:00;12.60;;;6.63;;
74347;SDS011;62778;50.406;10.008;2023-01-20T03:58:58;12.88;;;6.50;;
74347;SDS011;62778;50.406;10.008;2023-01-20T03:59:55;14.07;;;7.10;;
74347;SDS011;62778;50.406;10.008;2023-01-20T04:00:50;14.80;;;6.93;;
74347;SDS011;62778;50.406;10.008;2023-01-20T04:01:46;14.43;;;8.07;;
74347;SDS011;62778;50.406;10.008;2023-01-20T04:02:42;16.65;;;8.93;;
74347;SDS011;62778;50.406;10.008;2023-01-20T04:03:38;16.57;;;9.30;;
74347;SDS011;62778;50.406;10.008;2023-01-20T04:04:37;14.02;;;7.45;;
74347;SDS011;62778;50.406;10.008;2023-01-20T04:05:34;13.35;;;7.07;;
74347;SDS011;62778;50.406;10.008;2023-01-20T04:06:30;15.32;;;7.50;;
74347;SDS011;62778;50.406;10.008;2023-01-20T04:07:26;13.20;;;6.95;;
74347;SDS011;62778;50.406;10.008;2023-01-20T04:08:21;14.32;;;7.50;;
74347;SDS011;62778;50.406;10.008;2023-01-20T04:09:22;14.35;;;7.72;;
74347;SDS011;62778;50.406;10.008;2023-01-20T04:10:19;14.70;;;7.82;;
74347;SDS011;62778;50.406;10.008;2023-01-20T04:11:14;15.60;;;8.38;;
74347;SDS011;62778;50.406;10.008;2023-01-20T04:12:09;16.50;;;8.73;;
74347;SDS011;62778;50.406;10.008;2023-01-20T04:13:05;15.90;;;8.03;;
74347;SDS011;62778;50.406;10.008;2023-01-20T04:14:00;18.20;;;7.90;;
74347;SDS011;62778;50.406;10.008;2023-01-20T04:14:56;17.13;;;8.63;;
74347;SDS011;62778;50.406;10.008;2023-01-20T04:15:51;16.43;;;6.83;;
74347;SDS011;62778;50.406;10.008;2023-01-20T04:16:52;13.73;;;6.37;;
74347;SDS011;62778;50.406;10.008;2023-01-20T04:17:49;11.75;;;6.40;;
74347;SDS011;62778;50.406;10.008;2023-01-20T04:18:45;12.47;;;6.40;;
74347;SDS011;62778;50.406;10.008;2023-01-20T04:19:42;13.88;;;6.75;;
74347;SDS011;62778;50.406;10.008;2023-01-20T04:20:37;12.47;;;6.53;;
74347;SDS011;62778;50.406;10.008;2023-01-20T04:21:34;12.32;;;6.65;;
74347;SDS011;62778;50.406;10.008;2023-01-20T04:22:35;11.27;;;6.10;;
74347;SDS011;62778;50.406;10.008;2023-01-20T04:23:35;12.95;;;7.15;;
74347;SDS011;62778;50.406;10.008;2023-01-20T04:25:31;13.30;;;6.90;;
74347;SDS011;62778;50.406;10.008;2023-01-20T04:26:27;13.35;;;6.65;;
74347;SDS011;62778;50.406;10.008;2023-01-20T04:27:22;13.50;;;6.33;;
74347;SDS011;62778;50.406;10.008;2023-01-20T04:28:18;13.47;;;6.97;;
74347;SDS011;62778;50.406;10.008;2023-01-20T04:29:13;12.63;;;6.67;;
74347;SDS011;62778;50.406;10.008;2023-01-20T04:30:08;12.00;;;5.80;;
74347;SDS011;62778;50.406;10.008;2023-01-20T04:31:04;13.68;;;6.90;;
74347;SDS011;62778;50.406;10.008;2023-01-20T04:32:00;12.13;;;6.53;;
74347;SDS011;62778;50.406;10.008;2023-01-20T04:32:56;13.20;;;6.87;;
74347;SDS011;62778;50.406;10.008;2023-01-20T04:33:51;13.68;;;6.78;;
74347;SDS011;62778;50.406;10.008;2023-01-20T04:34:48;12.17;;;6.17;;
74347;SDS011;62778;50.406;10.008;2023-01-20T04:35:44;15.23;;;7.35;;
74347;SDS011;62778;50.406;10.008;2023-01-20T04:36:40;12.47;;;6.53;;
74347;SDS011;62778;50.406;10.008;2023-01-20T04:37:35;14.88;;;7.07;;
74347;SDS011;62778;50.406;10.008;2023-01-20T04:38:31;12.73;;;7.53;;
74347;SDS011;62778;50.406;10.008;2023-01-20T04:39:26;14.07;;;7.77;;
74347;SDS011;62778;50.406;10.008;2023-01-20T04:40:21;17.53;;;8.33;;
74347;SDS011;62778;50.406;10.008;2023-01-20T04:41:17;18.98;;;11.55;;
74347;SDS011;62778;50.406;10.008;2023-01-20T04:42:12;22.50;;;12.60;;
74347;SDS011;62778;50.406;10.008;2023-01-20T04:43:08;20.27;;;11.70;;
74347;SDS011;62778;50.406;10.008;2023-01-20T04:44:04;19.23;;;10.20;;
74347;SDS011;62778;50.406;10.008;2023-01-20T04:44:59;16.33;;;9.07;;
74347;SDS011;62778;50.406;10.008;2023-01-20T04:45:54;18.63;;;10.00;;
74347;SDS011;62778;50.406;10.008;2023-01-20T04:46:50;15.47;;;7.17;;
74347;SDS011;62778;50.406;10.008;2023-01-20T04:47:45;13.90;;;7.40;;
74347;SDS011;62778;50.406;10.008;2023-01-20T04:48:41;14.45;;;7.15;;
74347;SDS011;62778;50.406;10.008;2023-01-20T04:49:39;14.83;;;7.20;;
74347;SDS011;62778;50.406;10.008;2023-01-20T04:50:40;16.77;;;8.20;;
74347;SDS011;62778;50.406;10.008;2023-01-20T04:51:36;18.60;;;9.57;;
74347;SDS011;62778;50.406;10.008;2023-01-20T04:52:33;23.13;;;12.43;;
74347;SDS011;62778;50.406;10.008;2023-01-20T04:53:29;16.48;;;8.18;;
74347;SDS011;62778;50.406;10.008;2023-01-20T04:54:24;13.57;;;8.07;;
74347;SDS011;62778;50.406;10.008;2023-01-20T04:55:19;16.27;;;8.47;;
74347;SDS011;62778;50.406;10.008;2023-01-20T04:56:15;14.50;;;8.03;;
74347;SDS011;62778;50.406;10.008;2023-01-20T04:57:10;12.25;;;6.97;;
74347;SDS011;62778;50.406;10.008;2023-01-20T04:58:05;13.00;;;6.37;;
74347;SDS011;62778;50.406;10.008;2023-01-20T04:59:01;12.13;;;6.00;;
74347;SDS011;62778;50.406;10.008;2023-01-20T04:59:56;11.40;;;6.03;;
74347;SDS011;62778;50.406;10.008;2023-01-20T05:00:51;14.67;;;6.60;;
74347;SDS011;62778;50.406;10.008;2023-01-20T05:01:47;12.40;;;6.43;;
74347;SDS011;62778;50.406;10.008;2023-01-20T05:02:42;11.00;;;6.10;;
74347;SDS011;62778;50.406;10.008;2023-01-20T05:03:37;11.90;;;6.00;;
74347;SDS011;62778;50.406;10.008;2023-01-20T05:04:32;13.30;;;6.03;;
74347;SDS011;62778;50.406;10.008;2023-01-20T05:05:28;12.87;;;6.10;;
74347;SDS011;62778;50.406;10.008;2023-01-20T05:06:23;11.57;;;6.18;;
74347;SDS011;62778;50.406;10.008;2023-01-20T05:07:18;12.80;;;6.00;;
74347;SDS011;62778;50.406;10.008;2023-01-20T05:08:14;12.07;;;6.20;;
74347;SDS011;62778;50.406;10.008;2023-01-20T05:09:12;11.30;;;6.47;;
74347;SDS011;62778;50.406;10.008;2023-01-20T05:10:09;13.45;;;6.80;;
74347;SDS011;62778;50.406;10.008;2023-01-20T05:11:05;11.85;;;5.93;;
74347;SDS011;62778;50.406;10.008;2023-01-20T05:12:00;16.10;;;7.90;;
74347;SDS011;62778;50.406;10.008;2023-01-20T05:12:56;13.17;;;7.13;;
74347;SDS011;62778;50.406;10.008;2023-01-20T05:13:51;11.23;;;6.00;;
74347;SDS011;62778;50.406;10.008;2023-01-20T05:14:46;12.52;;;6.50;;
74347;SDS011;62778;50.406;10.008;2023-01-20T05:15:42;12.93;;;6.30;;
74347;SDS011;62778;50.406;10.008;2023-01-20T05:16:38;12.35;;;6.25;;
74347;SDS011;62778;50.406;10.008;2023-01-20T05:17:33;11.20;;;5.60;;
74347;SDS011;62778;50.406;10.008;2023-01-20T05:18:29;11.53;;;5.53;;
74347;SDS011;62778;50.406;10.008;2023-01-20T05:19:24;11.87;;;5.77;;
74347;SDS011;62778;50.406;10.008;2023-01-20T05:20:19;12.23;;;5.60;;
74347;SDS011;62778;50.406;10.008;2023-01-20T05:21:14;10.63;;;5.20;;
74347;SDS011;62778;50.406;10.008;2023-01-20T05:22:10;12.67;;;5.57;;
74347;SDS011;62778;50.406;10.008;2023-01-20T05:23:05;10.83;;;5.40;;
74347;SDS011;62778;50.406;10.008;2023-01-20T05:24:01;12.32;;;5.85;;
74347;SDS011;62778;50.406;10.008;2023-01-20T05:24:56;11.00;;;5.40;;
74347;SDS011;62778;50.406;10.008;2023-01-20T05:25:51;11.47;;;5.70;;
74347;SDS011;62778;50.406;10.008;2023-01-20T05:26:47;10.57;;;5.40;;
74347;SDS011;62778;50.406;10.008;2023-01-20T05:27:42;9.90;;;5.23;;
74347;SDS011;62778;50.406;10.008;2023-01-20T05:28:39;11.35;;;5.90;;
74347;SDS011;62778;50.406;10.008;2023-01-20T05:29:34;11.30;;;5.70;;
74347;SDS011;62778;50.406;10.008;2023-01-20T05:30:29;11.07;;;5.80;;
74347;SDS011;62778;50.406;10.008;2023-01-20T05:31:25;12.63;;;6.43;;
74347;SDS011;62778;50.406;10.008;2023-01-20T05:32:20;11.57;;;5.60;;
74347;SDS011;62778;50.406;10.008;2023-01-20T05:33:15;10.77;;;5.83;;
74347;SDS011;62778;50.406;10.008;2023-01-20T05:34:11;10.77;;;5.80;;
74347;SDS011;62778;50.406;10.008;2023-01-20T05:35:06;12.95;;;6.80;;
74347;SDS011;62778;50.406;10.008;2023-01-20T05:36:03;10.97;;;6.13;;
74347;SDS011;62778;50.406;10.008;2023-01-20T05:37:00;10.65;;;5.43;;
74347;SDS011;62778;50.406;10.008;2023-01-20T05:37:55;12.68;;;5.93;;
74347;SDS011;62778;50.406;10.008;2023-01-20T05:38:50;11.80;;;6.03;;
74347;SDS011;62778;50.406;10.008;2023-01-20T05:39:46;11.77;;;5.97;;
74347;SDS011;62778;50.406;10.008;2023-01-20T05:40:41;10.47;;;5.60;;
74347;SDS011;62778;50.406;10.008;2023-01-20T05:41:36;10.73;;;5.73;;
74347;SDS011;62778;50.406;10.008;2023-01-20T05:42:32;9.93;;;5.15;;
74347;SDS011;62778;50.406;10.008;2023-01-20T05:43:27;11.70;;;5.97;;
74347;SDS011;62778;50.406;10.008;2023-01-20T05:44:22;11.33;;;5.60;;
74347;SDS011;62778;50.406;10.008;2023-01-20T05:45:18;10.83;;;5.57;;
74347;SDS011;62778;50.406;10.008;2023-01-20T05:46:13;10.77;;;5.60;;
74347;SDS011;62778;50.406;10.008;2023-01-20T05:47:09;12.03;;;5.83;;
74347;SDS011;62778;50.406;10.008;2023-01-20T05:48:04;12.50;;;5.93;;
74347;SDS011;62778;50.406;10.008;2023-01-20T05:49:00;13.90;;;6.00;;
74347;SDS011;62778;50.406;10.008;2023-01-20T05:49:57;12.75;;;6.65;;
74347;SDS011;62778;50.406;10.008;2023-01-20T05:50:52;12.00;;;6.30;;
74347;SDS011;62778;50.406;10.008;2023-01-20T05:51:47;15.18;;;7.63;;
74347;SDS011;62778;50.406;10.008;2023-01-20T05:52:43;15.27;;;7.57;;
74347;SDS011;62778;50.406;10.008;2023-01-20T05:53:38;18.40;;;8.97;;
74347;SDS011;62778;50.406;10.008;2023-01-20T05:54:33;17.23;;;8.53;;
74347;SDS011;62778;50.406;10.008;2023-01-20T05:55:29;18.93;;;10.87;;